Time;durP1;ratioP1;P1;durP2;ratioP2;P2;SDS_P1;SDS_P2;PMS_P1;PMS_P2;Temp;Humidity;BMP_temperature;BMP_pressure;BME280_temperature;BME280_humidity;BME280_pressure;Samples;Min_cycle;Max_cycle;Signal;HPM_P1;HPM_P2
2022/07/06 00:01:21;;;;;;;31.95;21.70;;;;;;;19.60;75.53;99749.03;5030315;28;20478;-53
2022/07/06 00:03:47;;;;;;;28.00;21.77;;;;;;;19.60;75.32;99751.75;5030806;28;20064;-53
2022/07/06 00:06:13;;;;;;;33.95;22.40;;;;;;;19.60;75.19;99746.31;5029788;28;20098;-55
2022/07/06 00:08:39;;;;;;;37.90;22.52;;;;;;;19.57;75.15;99748.56;5030956;28;20112;-52
2022/07/06 00:11:05;;;;;;;32.28;21.02;;;;;;;19.59;74.98;99747.34;5029740;28;20102;-51
2022/07/06 00:13:31;;;;;;;28.50;21.75;;;;;;;19.58;75.30;99753.81;5030452;28;20474;-54
2022/07/06 00:15:56;;;;;;;32.75;22.40;;;;;;;19.57;74.83;99749.41;5030653;28;20167;-53
2022/07/06 00:18:22;;;;;;;28.33;21.55;;;;;;;19.42;75.11;99726.81;5030965;28;20470;-52
2022/07/06 00:20:47;;;;;;;31.70;22.05;;;;;;;19.56;74.90;99745.03;5030535;28;20029;-53
2022/07/06 00:23:13;;;;;;;32.25;21.48;;;;;;;19.56;75.17;99734.16;5030498;28;20113;-53
2022/07/06 00:25:38;;;;;;;37.22;20.95;;;;;;;19.57;75.07;99735.84;5030734;28;20357;-54
2022/07/06 00:28:04;;;;;;;32.53;22.23;;;;;;;19.57;74.72;99734.97;5030474;28;20033;-51
2022/07/06 00:30:30;;;;;;;31.98;22.60;;;;;;;19.58;75.04;99744.81;5029704;28;20046;-52
2022/07/06 00:32:57;;;;;;;33.95;20.83;;;;;;;19.36;75.30;99699.38;5030496;28;20441;-50
2022/07/06 00:35:24;;;;;;;28.08;21.55;;;;;;;19.57;75.13;99727.69;5030325;28;20380;-50
2022/07/06 00:37:50;;;;;;;29.92;21.13;;;;;;;19.58;74.61;99726.66;5030678;28;20440;-54
2022/07/06 00:40:15;;;;;;;29.83;22.40;;;;;;;19.46;75.25;99709.13;5034299;28;20029;-53
2022/07/06 00:42:43;;;;;;;28.00;21.05;;;;;;;19.61;75.25;99739.88;5034714;28;20426;-51
2022/07/06 00:45:10;;;;;;;26.42;20.85;;;;;;;19.55;75.20;99732.47;5034191;28;20039;-50
2022/07/06 00:47:36;;;;;;;28.42;20.98;;;;;;;19.57;75.25;99734.97;5033897;28;20449;-48
2022/07/06 00:50:22;;;;;;;27.88;20.73;;;;;;;19.58;74.92;99737.53;5033927;28;20034;-52
2022/07/06 00:52:55;;;;;;;;;;;;;;;19.90;74.02;99746.34;5034587;28;20108;-54
2022/07/06 00:55:29;;;;;;;24.38;20.80;;;;;;;19.71;74.28;99742.31;5033405;28;19936;-51
2022/07/06 00:57:55;;;;;;;28.60;21.92;;;;;;;19.57;74.53;99740.41;5033789;28;20048;-53
2022/07/06 01:00:23;;;;;;;25.73;21.77;;;;;;;19.60;74.96;99746.31;5033910;28;20033;-51
2022/07/06 01:02:49;;;;;;;25.05;21.75;;;;;;;19.58;74.74;99742.09;5033603;28;20039;-53
2022/07/06 01:05:16;;;;;;;27.25;22.30;;;;;;;19.60;74.67;99740.03;5034033;28;20045;-52
2022/07/06 01:07:43;;;;;;;23.83;20.73;;;;;;;19.63;74.90;99737.81;5033808;28;20029;-53
2022/07/06 01:10:11;;;;;;;26.05;21.52;;;;;;;19.67;74.85;99741.00;5032292;28;20025;-52
2022/07/06 01:12:40;;;;;;;30.02;23.05;;;;;;;19.70;74.52;99745.22;5033456;28;20046;-50
2022/07/06 01:15:11;;;;;;;24.23;21.65;;;;;;;19.78;74.50;99737.81;5033702;28;20045;-51
2022/07/06 01:17:38;;;;;;;25.75;22.23;;;;;;;19.87;74.07;99749.44;5033198;28;20076;-51
2022/07/06 01:20:14;;;;;;;27.60;21.52;;;;;;;19.98;73.84;99747.31;5033277;28;20033;-52
2022/07/06 01:22:40;;;;;;;23.60;21.17;;;;;;;20.02;73.55;99754.06;5033752;28;20033;-50
2022/07/06 01:25:06;;;;;;;26.15;21.08;;;;;;;20.06;73.41;99741.78;5033552;28;20480;-51
2022/07/06 01:27:37;;;;;;;25.77;21.13;;;;;;;20.12;73.35;99735.59;5033152;28;20037;-53
2022/07/06 01:30:15;;;;;;;28.02;21.80;;;;;;;20.21;73.39;99737.16;5033317;28;20041;-54
2022/07/06 01:32:41;;;;;;;24.70;21.25;;;;;;;20.11;72.76;99727.63;5033665;28;20099;-52
2022/07/06 01:35:09;;;;;;;25.92;21.48;;;;;;;20.20;72.87;99734.66;5032832;28;20037;-50
2022/07/06 01:37:35;;;;;;;24.60;21.80;;;;;;;20.19;72.99;99741.97;5033053;28;20030;-53
2022/07/06 01:40:02;;;;;;;23.45;20.98;;;;;;;20.20;72.75;99746.34;5033247;28;20028;-52
2022/07/06 01:42:28;;;;;;;27.05;21.48;;;;;;;20.06;72.96;99718.16;5033052;28;20414;-55
2022/07/06 01:44:54;;;;;;;25.13;20.10;;;;;;;20.21;72.69;99745.31;5033109;28;20040;-54
2022/07/06 01:47:20;;;;;;;26.02;22.63;;;;;;;20.22;72.65;99749.72;5032254;28;20092;-51
2022/07/06 01:49:45;;;;;;;26.30;21.98;;;;;;;20.23;72.82;99751.41;5033043;28;20122;-52
2022/07/06 01:52:11;;;;;;;24.42;21.92;;;;;;;20.27;72.54;99745.63;5031750;28;20113;-50
2022/07/06 01:54:36;;;;;;;23.90;21.40;;;;;;;20.30;72.60;99751.50;5033076;28;20079;-52
2022/07/06 01:57:02;;;;;;;23.63;21.13;;;;;;;20.31;72.50;99744.22;5032472;28;20381;-50
2022/07/06 01:59:27;;;;;;;24.95;21.25;;;;;;;20.40;72.24;99745.78;5032385;28;20034;-53
2022/07/06 02:01:53;;;;;;;24.10;21.67;;;;;;;20.40;71.97;99737.63;5033117;28;20030;-53
2022/07/06 02:04:18;;;;;;;26.60;21.92;;;;;;;20.49;71.83;99751.94;5032969;28;20035;-57
2022/07/06 02:06:44;;;;;;;24.83;22.20;;;;;;;20.53;71.27;99752.41;5031576;28;20422;-52
2022/07/06 02:09:09;;;;;;;24.50;21.90;;;;;;;20.57;71.37;99743.66;5032539;28;20037;-54
2022/07/06 02:11:35;;;;;;;24.42;21.77;;;;;;;20.63;71.22;99755.66;5032741;28;20038;-53
2022/07/06 02:14:00;;;;;;;27.13;22.80;;;;;;;20.63;70.74;99750.22;5031085;28;20061;-49
2022/07/06 02:16:26;;;;;;;24.98;21.42;;;;;;;20.72;70.90;99742.78;5031241;28;20056;-53
2022/07/06 02:18:51;;;;;;;24.85;22.20;;;;;;;20.80;70.79;99753.56;5031955;28;20033;-52
2022/07/06 02:21:16;;;;;;;28.42;22.48;;;;;;;20.89;70.13;99755.16;5032692;28;20104;-51
2022/07/06 02:23:42;;;;;;;28.25;22.38;;;;;;;21.03;69.61;99753.41;5032430;28;20131;-50
2022/07/06 02:26:07;;;;;;;25.13;22.30;;;;;;;21.17;68.73;99750.78;5032279;28;20660;-52
2022/07/06 02:28:33;;;;;;;25.73;22.50;;;;;;;21.28;68.13;99747.56;5031853;28;20037;-49
2022/07/06 02:30:59;;;;;;;25.17;20.55;;;;;;;21.39;68.14;99758.94;5032657;28;20474;-50
2022/07/06 02:33:24;;;;;;;23.50;21.00;;;;;;;21.39;67.92;99748.91;5032253;28;20029;-53
2022/07/06 02:35:50;;;;;;;28.65;22.73;;;;;;;21.53;67.68;99760.75;5030715;28;20458;-53
2022/07/06 02:38:15;;;;;;;30.38;22.67;;;;;;;21.61;67.12;99755.16;5032118;28;20026;-49
2022/07/06 02:40:41;;;;;;;35.13;21.70;;;;;;;21.76;66.55;99762.41;5032224;28;20069;-53
2022/07/06 02:43:06;;;;;;;35.95;22.08;;;;;;;21.90;66.39;99763.34;5031619;28;20056;-49
2022/07/06 02:45:32;;;;;;;35.10;22.05;;;;;;;22.12;65.38;99766.00;5031857;28;20112;-52
2022/07/06 02:47:57;;;;;;;44.78;22.13;;;;;;;22.32;64.78;99763.34;5031915;28;20030;-52
2022/07/06 02:50:26;;;;;;;36.97;21.27;;;;;;;22.59;64.29;99760.75;5031662;28;20025;-50
2022/07/06 02:52:51;;;;;;;49.95;20.83;;;;;;;22.67;63.32;99760.59;5031889;28;20248;-55
2022/07/06 02:55:17;;;;;;;40.15;19.90;;;;;;;22.82;62.93;99765.03;5031798;28;20397;-52
2022/07/06 02:57:42;;;;;;;38.40;20.58;;;;;;;22.77;62.19;99739.19;5031659;28;20033;-53
2022/07/06 03:00:09;;;;;;;35.30;20.25;;;;;;;23.03;61.83;99758.56;5029827;28;20033;-56
2022/07/06 03:02:35;;;;;;;36.90;20.83;;;;;;;23.18;61.73;99764.66;5031238;28;20080;-49
2022/07/06 03:05:00;;;;;;;28.70;20.00;;;;;;;23.31;61.07;99755.69;5031162;28;20026;-51
2022/07/06 03:07:26;;;;;;;35.35;20.40;;;;;;;23.66;60.21;99751.88;5031352;28;20203;-49
2022/07/06 03:09:51;;;;;;;33.92;19.65;;;;;;;24.00;58.51;99744.47;5031001;28;20530;-49
2022/07/06 03:12:17;;;;;;;27.38;19.23;;;;;;;24.43;57.52;99734.88;5031608;28;20071;-51
2022/07/06 03:14:42;;;;;;;25.90;18.65;;;;;;;24.90;57.25;99731.88;5030869;28;20029;-48
2022/07/06 03:17:08;;;;;;;33.03;18.90;;;;;;;25.37;55.29;99730.69;5031151;28;20458;-54
2022/07/06 03:19:34;;;;;;;30.35;17.85;;;;;;;25.85;53.70;99722.88;5031028;28;20033;-52
2022/07/06 03:21:59;;;;;;;30.65;17.00;;;;;;;26.40;52.10;99730.28;5013450;28;20119;-49
2022/07/06 03:24:25;;;;;;;28.35;19.08;;;;;;;26.94;50.38;99729.56;5031331;28;20037;-53
2022/07/06 03:26:51;;;;;;;19.63;17.23;;;;;;;27.47;48.65;99730.63;5031316;28;20029;-50
2022/07/06 03:29:17;;;;;;;23.67;16.88;;;;;;;27.92;47.77;99734.69;5029758;28;20065;-48
2022/07/06 03:31:42;;;;;;;21.17;17.08;;;;;;;28.38;46.32;99724.94;5031239;28;20124;-50
2022/07/06 03:34:08;;;;;;;17.85;15.98;;;;;;;28.77;45.22;99728.72;5031026;28;20029;-49
2022/07/06 03:36:34;;;;;;;22.67;16.27;;;;;;;29.16;44.18;99729.94;5030554;28;20488;-53
2022/07/06 03:38:59;;;;;;;18.15;16.30;;;;;;;29.41;42.80;99728.72;5031329;28;20034;-50
2022/07/06 03:41:25;;;;;;;18.40;16.48;;;;;;;29.72;42.28;99737.47;5031108;28;20472;-50
2022/07/06 03:43:50;;;;;;;18.92;15.80;;;;;;;30.06;41.58;99732.75;5031186;28;20470;-50
2022/07/06 03:46:16;;;;;;;18.02;16.13;;;;;;;30.37;40.63;99704.66;5030759;28;20036;-49
2022/07/06 03:48:41;;;;;;;17.70;15.80;;;;;;;30.83;39.72;99714.56;5030982;28;20108;-49
2022/07/06 03:51:07;;;;;;;23.83;15.90;;;;;;;31.44;38.78;99732.81;5030614;28;20116;-53
2022/07/06 03:53:32;;;;;;;17.85;16.15;;;;;;;32.04;37.17;99740.94;5030623;28;20446;-55
2022/07/06 03:58:42;;;;;;;19.15;16.88;;;;;;;33.04;35.30;99741.00;5030840;28;20030;-50
2022/07/06 04:01:08;;;;;;;20.50;15.98;;;;;;;33.18;35.04;99742.13;5030647;28;20041;-51
2022/07/06 04:03:33;;;;;;;18.42;14.95;;;;;;;33.29;34.49;99742.13;5030660;28;20044;-53
2022/07/06 04:05:59;;;;;;;18.27;15.77;;;;;;;33.05;34.93;99751.84;5030596;28;20032;-49
2022/07/06 04:08:24;;;;;;;17.38;15.52;;;;;;;32.59;35.42;99740.63;5030958;28;20021;-59
2022/07/06 04:10:49;;;;;;;18.77;15.93;;;;;;;32.43;36.37;99746.13;5030944;28;20025;-49
2022/07/06 04:13:15;;;;;;;17.10;15.27;;;;;;;32.25;36.36;99724.41;5033544;28;20748;-52
2022/07/06 04:15:40;;;;;;;16.88;15.15;;;;;;;32.67;35.44;99742.00;5034087;28;20026;-53
2022/07/06 04:18:06;;;;;;;17.60;15.75;;;;;;;32.87;34.97;99746.78;5034210;28;20095;-55
2022/07/06 04:20:31;;;;;;;16.73;14.98;;;;;;;33.32;34.32;99739.63;5034814;28;20088;-56
2022/07/06 04:22:57;;;;;;;17.33;15.43;;;;;;;33.86;33.13;99730.94;5033862;28;20037;-55
2022/07/06 04:25:22;;;;;;;17.20;15.50;;;;;;;34.70;31.67;99735.88;5034615;28;20029;-53
2022/07/06 04:27:48;;;;;;;17.00;14.98;;;;;;;35.50;30.69;99730.28;5034621;28;20037;-51
2022/07/06 04:30:14;;;;;;;16.17;14.65;;;;;;;36.34;29.06;99714.31;5033538;28;20129;-56
2022/07/06 04:32:39;;;;;;;19.40;15.75;;;;;;;37.24;27.27;99719.13;5033283;28;20061;-53
2022/07/06 04:35:05;;;;;;;18.13;14.82;;;;;;;38.45;25.81;99739.75;5032872;28;20091;-54
2022/07/06 04:37:31;;;;;;;17.13;15.27;;;;;;;38.98;25.19;99739.41;5033165;28;20033;-57
2022/07/06 04:39:57;;;;;;;17.52;15.32;;;;;;;39.23;24.86;99737.09;5033218;28;20056;-52
2022/07/06 04:42:24;;;;;;;16.20;14.50;;;;;;;39.53;24.41;99735.47;5033497;28;20433;-51
2022/07/06 04:44:51;;;;;;;16.05;14.55;;;;;;;39.99;23.54;99729.75;5033263;28;20040;-51
2022/07/06 04:47:17;;;;;;;19.70;15.13;;;;;;;40.83;22.77;99737.38;5032587;28;20125;-50
2022/07/06 04:49:42;;;;;;;15.93;14.48;;;;;;;41.29;21.85;99727.41;5032249;28;20124;-54
2022/07/06 04:52:07;;;;;;;18.00;14.75;;;;;;;41.66;21.15;99723.34;5032994;28;20026;-49
2022/07/06 04:54:33;;;;;;;16.75;14.32;;;;;;;41.92;20.58;99731.66;5033081;28;20033;-56
2022/07/06 04:56:58;;;;;;;15.60;13.45;;;;;;;42.26;20.35;99729.84;5032662;28;20440;-53
2022/07/06 04:59:24;;;;;;;15.60;13.90;;;;;;;42.68;19.81;99723.41;5031869;28;20383;-54
2022/07/06 05:01:49;;;;;;;13.88;12.10;;;;;;;43.19;18.81;99714.03;5031473;28;20037;-54
2022/07/06 05:04:18;;;;;;;13.48;11.98;;;;;;;43.71;18.53;99726.72;5031337;28;20018;-52
2022/07/06 05:06:43;;;;;;;14.68;12.60;;;;;;;44.25;17.79;99724.03;5032474;28;20033;-54
2022/07/06 05:09:09;;;;;;;14.60;13.30;;;;;;;44.66;17.40;99710.78;5032652;28;20461;-55
2022/07/06 05:11:35;;;;;;;16.05;12.40;;;;;;;45.27;16.91;99714.50;5032080;28;20462;-52
2022/07/06 05:14:01;;;;;;;12.68;11.25;;;;;;;45.79;16.30;99717.47;5032262;28;20029;-53
2022/07/06 05:16:26;;;;;;;12.05;11.05;;;;;;;46.11;15.91;99708.13;5031972;28;20040;-57
2022/07/06 05:18:52;;;;;;;10.50;9.45;;;;;;;46.44;15.11;99704.03;5032854;28;20033;-52
2022/07/06 05:21:17;;;;;;;10.68;9.23;;;;;;;46.85;15.20;99706.50;5031250;28;20095;-55
2022/07/06 05:23:43;;;;;;;9.98;8.98;;;;;;;47.27;14.39;99704.88;5031752;28;20025;-55
2022/07/06 05:26:08;;;;;;;10.82;9.82;;;;;;;47.66;13.91;99699.09;5031897;28;20030;-52
2022/07/06 05:28:34;;;;;;;11.07;9.68;;;;;;;48.26;13.09;99697.56;5032320;28;20091;-52
2022/07/06 05:30:59;;;;;;;10.60;9.73;;;;;;;48.65;13.16;99707.81;5032280;28;20168;-52
2022/07/06 05:33:27;;;;;;;10.18;9.07;;;;;;;48.87;12.70;99710.94;5032278;28;20038;-58
2022/07/06 05:35:53;;;;;;;10.00;9.18;;;;;;;49.07;12.66;99694.50;5032802;28;20038;-50
2022/07/06 05:38:19;;;;;;;9.25;8.45;;;;;;;49.53;12.22;99692.50;5033412;28;20428;-52
2022/07/06 05:40:44;;;;;;;10.18;9.35;;;;;;;49.55;12.13;99684.41;5033225;28;20037;-52
2022/07/06 05:43:10;;;;;;;11.07;10.10;;;;;;;49.63;11.86;99694.63;5033298;28;20509;-53
2022/07/06 05:45:35;;;;;;;11.25;10.32;;;;;;;49.20;12.58;99697.91;5032963;28;20128;-55
2022/07/06 05:50:45;;;;;;;10.43;9.40;;;;;;;49.87;11.87;99700.94;5033091;28;20032;-52
2022/07/06 05:53:10;;;;;;;10.63;9.52;;;;;;;50.07;11.71;99695.75;5032898;28;20120;-55
2022/07/06 05:55:36;;;;;;;9.95;9.13;;;;;;;50.45;11.55;99703.31;5032455;28;20039;-52
2022/07/06 05:58:01;;;;;;;8.93;8.27;;;;;;;50.98;10.73;99694.16;5031468;28;20034;-52
2022/07/06 06:00:28;;;;;;;9.43;8.43;;;;;;;51.30;10.80;99703.16;5033194;28;20313;-57
2022/07/06 06:02:54;;;;;;;9.35;8.45;;;;;;;51.72;10.20;99690.13;5033264;28;20033;-54
2022/07/06 06:05:20;;;;;;;9.30;8.60;;;;;;;52.27;9.90;99690.81;5032394;28;20359;-53
2022/07/06 06:07:50;;;;;;;8.70;8.00;;;;;;;52.79;9.34;99692.22;5031868;28;20032;-53
2022/07/06 06:10:17;;;;;;;10.38;9.52;;;;;;;53.02;9.37;99688.03;5030998;28;20033;-54
2022/07/06 06:12:43;;;;;;;10.00;9.20;;;;;;;52.98;9.42;99690.91;5032921;28;20167;-54
2022/07/06 06:15:09;;;;;;;10.10;9.30;;;;;;;53.25;8.96;99696.84;5032313;28;20034;-51
2022/07/06 06:17:36;;;;;;;9.15;8.38;;;;;;;53.49;9.18;99693.41;5032004;28;20103;-53
2022/07/06 06:20:03;;;;;;;9.57;8.57;;;;;;;54.03;8.36;99678.59;5032441;28;20036;-57
2022/07/06 06:22:29;;;;;;;11.75;8.63;;;;;;;53.83;8.82;99675.50;5032568;28;20033;-61
2022/07/06 06:24:54;;;;;;;8.90;8.23;;;;;;;53.59;8.97;99678.16;5032504;28;20099;-58
2022/07/06 06:27:20;;;;;;;8.82;8.02;;;;;;;53.40;8.96;99671.00;5031516;28;20437;-59
2022/07/06 06:29:45;;;;;;;8.85;8.07;;;;;;;52.99;9.40;99668.81;5031057;28;20057;-57
2022/07/06 06:32:12;;;;;;;8.90;8.13;;;;;;;52.71;9.70;99662.91;5032534;28;20048;-57
2022/07/06 06:34:38;;;;;;;8.75;7.95;;;;;;;52.52;9.49;99667.88;5032286;28;20034;-56
2022/07/06 06:37:03;;;;;;;8.95;8.15;;;;;;;52.53;9.12;99665.81;5030657;28;20036;-57
2022/07/06 06:39:29;;;;;;;8.93;8.30;;;;;;;52.71;8.92;99670.66;5032234;28;20037;-62
2022/07/06 06:41:55;;;;;;;8.48;7.88;;;;;;;52.59;8.95;99649.88;5032504;28;20037;-58
2022/07/06 06:44:22;;;;;;;7.85;7.07;;;;;;;52.70;8.74;99663.31;5031649;28;20492;-58
2022/07/06 06:46:49;;;;;;;8.70;8.10;;;;;;;52.76;9.09;99675.94;5031553;28;20051;-57
2022/07/06 06:49:14;;;;;;;9.27;8.40;;;;;;;52.90;8.74;99635.00;5031849;28;20049;-59
2022/07/06 06:51:40;;;;;;;8.57;7.77;;;;;;;53.07;9.11;99661.88;5032040;28;20378;-59
2022/07/06 06:54:05;;;;;;;8.85;8.05;;;;;;;53.01;8.69;99669.22;5031439;28;20619;-58
2022/07/06 06:56:31;;;;;;;8.65;7.85;;;;;;;52.76;9.06;99658.78;5031281;28;20091;-58
2022/07/06 06:58:56;;;;;;;8.13;7.45;;;;;;;53.07;8.52;99656.16;5032160;28;20117;-58
2022/07/06 07:01:22;;;;;;;8.60;7.73;;;;;;;53.45;8.29;99661.16;5031810;28;20034;-65
2022/07/06 07:03:48;;;;;;;10.43;8.07;;;;;;;53.88;8.42;99666.44;5023355;28;20282;-61
2022/07/06 07:06:14;;;;;;;8.40;7.70;;;;;;;54.42;7.87;99662.16;5027650;28;20032;-57
2022/07/06 07:08:39;;;;;;;9.27;8.35;;;;;;;54.95;7.17;99667.56;5030722;28;20021;-62
2022/07/06 07:11:05;;;;;;;9.13;8.53;;;;;;;54.79;7.99;99671.88;5030105;28;20436;-56
2022/07/06 07:13:30;;;;;;;9.43;8.70;;;;;;;54.78;7.66;99667.38;5028563;28;20739;-61
2022/07/06 07:15:56;;;;;;;9.90;8.93;;;;;;;54.71;7.77;99664.63;5030815;28;20040;-59
2022/07/06 07:18:21;;;;;;;10.15;9.20;;;;;;;55.18;7.68;99661.03;5027992;28;20059;-59
2022/07/06 07:20:47;;;;;;;9.55;8.85;;;;;;;55.17;7.13;99661.50;5030961;28;20026;-55
2022/07/06 07:23:12;;;;;;;9.65;8.85;;;;;;;54.80;7.95;99666.97;5030581;28;20079;-57
2022/07/06 07:25:40;;;;;;;10.38;9.57;;;;;;;54.04;8.10;99662.22;5031107;28;20030;-55
2022/07/06 07:28:06;;;;;;;9.82;9.13;;;;;;;53.90;7.80;99649.69;5030315;28;20037;-60
2022/07/06 07:30:32;;;;;;;9.50;8.80;;;;;;;54.67;7.73;99664.66;5030219;28;20110;-60
2022/07/06 07:33:00;;;;;;;10.40;9.60;;;;;;;55.62;7.81;99663.16;5030718;28;20041;-59
2022/07/06 07:35:25;;;;;;;10.68;9.60;;;;;;;56.31;7.06;99659.78;5029895;28;20114;-59
2022/07/06 07:37:51;;;;;;;10.52;9.82;;;;;;;55.76;7.21;99630.53;5030479;28;20029;-60
2022/07/06 07:40:17;;;;;;;11.07;10.07;;;;;;;54.75;7.41;99656.00;5030470;28;20064;-57
2022/07/06 07:42:43;;;;;;;10.73;9.93;;;;;;;54.63;7.81;99661.03;5030900;28;20033;-57
2022/07/06 07:45:09;;;;;;;10.82;9.60;;;;;;;54.94;7.99;99663.84;5030483;28;20041;-58
2022/07/06 07:47:34;;;;;;;10.75;9.77;;;;;;;54.83;7.51;99657.50;5028429;28;20091;-58
2022/07/06 07:50:00;;;;;;;10.45;9.68;;;;;;;54.85;7.40;99659.91;5031118;28;20025;-60
2022/07/06 07:52:26;;;;;;;11.68;10.45;;;;;;;54.15;8.46;99653.47;5030677;28;20116;-58
2022/07/06 07:54:51;;;;;;;10.77;9.97;;;;;;;52.88;8.64;99654.63;5028823;28;20079;-60
2022/07/06 07:57:16;;;;;;;10.18;9.15;;;;;;;50.34;10.42;99657.69;5030046;28;20258;-55
2022/07/06 07:59:42;;;;;;;10.32;9.25;;;;;;;48.42;11.91;99649.13;5030302;28;20037;-58
2022/07/06 08:02:08;;;;;;;10.23;9.43;;;;;;;49.27;11.73;99652.50;5030640;28;20131;-59
2022/07/06 08:04:33;;;;;;;10.85;9.63;;;;;;;50.20;10.84;99644.19;5030139;28;20437;-60
2022/07/06 08:06:59;;;;;;;9.93;9.23;;;;;;;50.11;11.23;99633.97;5029612;28;20037;-57
2022/07/06 08:09:24;;;;;;;10.13;9.23;;;;;;;48.87;12.65;99636.25;5025491;28;20029;-56
2022/07/06 08:11:50;;;;;;;9.73;8.73;;;;;;;49.27;11.82;99643.13;5030696;28;20055;-59
2022/07/06 08:14:16;;;;;;;9.75;8.90;;;;;;;48.03;12.27;99637.25;5027119;28;20376;-61
2022/07/06 08:16:42;;;;;;;10.32;9.52;;;;;;;46.54;13.81;99641.16;5030776;28;20036;-55
2022/07/06 08:19:09;;;;;;;10.07;9.27;;;;;;;44.95;15.36;99638.19;5025726;28;20338;-56
2022/07/06 08:21:35;;;;;;;10.35;9.38;;;;;;;42.88;16.92;99639.31;5027305;28;20090;-59
2022/07/06 08:24:01;;;;;;;10.40;9.50;;;;;;;42.50;17.82;99640.34;5028551;28;20040;-60
2022/07/06 08:26:27;;;;;;;10.40;9.68;;;;;;;41.58;18.68;99638.72;5029297;28;20022;-61
2022/07/06 08:28:53;;;;;;;11.23;10.32;;;;;;;40.37;20.02;99633.88;5028648;28;20107;-62
2022/07/06 08:31:19;;;;;;;12.75;10.18;;;;;;;39.58;21.19;99642.91;5028971;28;21305;-61
2022/07/06 08:33:44;;;;;;;12.20;10.98;;;;;;;38.82;22.67;99638.16;5027725;28;20358;-58
2022/07/06 08:36:10;;;;;;;11.80;10.85;;;;;;;37.85;23.17;99615.75;5029118;28;20037;-61
2022/07/06 08:38:35;;;;;;;11.82;10.82;;;;;;;37.16;24.42;99622.16;5028901;28;20024;-58
2022/07/06 08:41:02;;;;;;;12.30;11.20;;;;;;;36.96;24.79;99652.06;5028866;28;20084;-59
2022/07/06 08:43:27;;;;;;;12.63;11.52;;;;;;;36.67;25.41;99641.94;5026866;28;20385;-55
2022/07/06 08:45:54;;;;;;;13.60;12.13;;;;;;;36.11;26.35;99638.00;5029100;28;20036;-54
2022/07/06 08:48:23;;;;;;;13.07;11.77;;;;;;;35.62;27.07;99638.84;5028140;28;20350;-59
2022/07/06 08:50:49;;;;;;;13.48;12.18;;;;;;;35.14;27.77;99622.94;5028585;28;20304;-58
2022/07/06 08:53:17;;;;;;;13.73;12.63;;;;;;;34.85;27.96;99620.13;5026907;28;20381;-55
2022/07/06 08:55:43;;;;;;;13.70;12.20;;;;;;;34.72;28.69;99633.56;5028374;28;20069;-55
2022/07/06 08:58:09;;;;;;;13.27;12.10;;;;;;;34.51;29.13;99626.53;5028738;28;20053;-57
2022/07/06 09:00:35;;;;;;;12.75;11.57;;;;;;;34.53;29.14;99633.44;5032044;28;20159;-60
2022/07/06 09:03:01;;;;;;;13.10;11.93;;;;;;;34.27;29.45;99591.91;5031570;28;20028;-60
2022/07/06 09:05:28;;;;;;;13.32;11.98;;;;;;;34.58;29.29;99629.78;5032122;28;20033;-58
2022/07/06 09:07:55;;;;;;;12.82;11.73;;;;;;;34.57;29.48;99628.94;5029996;28;20896;-56
2022/07/06 09:10:21;;;;;;;13.75;12.18;;;;;;;34.83;28.80;99633.50;5032652;28;20063;-58
2022/07/06 09:12:48;;;;;;;13.77;12.30;;;;;;;34.87;27.77;99626.22;5032734;28;20435;-58
2022/07/06 09:15:14;;;;;;;12.85;11.55;;;;;;;34.52;28.17;99601.19;5029188;28;20121;-54
2022/07/06 09:17:41;;;;;;;12.60;11.30;;;;;;;34.68;28.51;99629.69;5031871;28;20429;-58
2022/07/06 09:20:15;;;;;;;13.02;11.93;;;;;;;34.99;28.05;99629.47;5031056;28;20022;-60
2022/07/06 09:22:41;;;;;;;13.10;11.95;;;;;;;34.87;28.14;99595.63;5030004;28;20030;-58
2022/07/06 09:25:11;;;;;;;12.95;11.68;;;;;;;35.13;28.13;99615.72;5026431;28;20038;-59
2022/07/06 09:27:42;;;;;;;13.32;12.32;;;;;;;35.14;28.11;99611.81;5022639;28;20506;-56
2022/07/06 09:30:10;;;;;;;15.90;12.40;;;;;;;34.95;28.24;99625.56;5028279;28;20080;-56
2022/07/06 09:32:41;;;;;;;14.02;12.60;;;;;;;34.75;28.72;99621.88;5020627;28;20413;-57
2022/07/06 09:35:07;;;;;;;13.63;12.13;;;;;;;34.48;28.75;99620.44;5031807;28;20038;-57
2022/07/06 09:37:32;;;;;;;13.70;12.20;;;;;;;34.38;29.47;99617.66;5023010;28;20056;-59
2022/07/06 09:39:58;;;;;;;13.88;12.65;;;;;;;34.48;29.62;99626.00;5030840;28;20061;-62
2022/07/06 09:42:26;;;;;;;14.13;12.70;;;;;;;34.71;28.73;99595.75;5032428;28;20040;-57
2022/07/06 09:44:53;;;;;;;13.77;12.27;;;;;;;34.93;28.62;99616.69;5031826;28;20494;-57
2022/07/06 09:47:19;;;;;;;14.63;13.32;;;;;;;34.77;28.44;99586.28;5032311;28;20137;-58
2022/07/06 09:49:45;;;;;;;14.45;13.00;;;;;;;34.77;28.13;99591.00;5031662;28;20101;-60
2022/07/06 09:52:12;;;;;;;15.07;13.55;;;;;;;35.02;28.60;99603.88;5025247;28;20034;-61
2022/07/06 09:54:40;;;;;;;15.35;13.45;;;;;;;35.03;28.47;99605.53;5023025;28;20033;-58
2022/07/06 09:57:07;;;;;;;15.00;13.50;;;;;;;35.03;29.02;99618.59;5024580;28;20034;-57
2022/07/06 09:59:34;;;;;;;13.38;12.07;;;;;;;35.10;28.54;99607.13;5031704;28;20044;-56
2022/07/06 10:02:05;;;;;;;14.13;12.82;;;;;;;35.20;27.96;99601.44;5024883;28;20037;-58
2022/07/06 10:04:31;;;;;;;13.70;12.50;;;;;;;35.03;28.20;99596.34;5018478;28;20025;-60
2022/07/06 10:06:58;;;;;;;15.18;13.68;;;;;;;34.99;28.51;99603.59;5025106;28;20048;-60
2022/07/06 10:09:25;;;;;;;14.15;12.77;;;;;;;35.04;28.08;99603.56;5022342;28;20176;-58
2022/07/06 10:11:54;;;;;;;12.65;11.45;;;;;;;35.13;26.96;99606.53;5020099;28;20460;-58
2022/07/06 10:14:24;;;;;;;13.25;12.10;;;;;;;35.17;27.49;99593.69;5015373;28;20091;-59
2022/07/06 10:16:51;;;;;;;14.63;13.23;;;;;;;34.90;28.20;99595.03;5013735;28;20049;-63
2022/07/06 10:19:19;;;;;;;14.90;12.48;;;;;;;34.54;28.41;99584.25;5022811;28;20048;-59
2022/07/06 10:21:45;;;;;;;15.13;13.35;;;;;;;34.24;29.19;99584.16;5018813;28;20537;-58
2022/07/06 10:24:12;;;;;;;13.75;12.48;;;;;;;34.02;29.22;99588.16;5017306;28;20129;-59
2022/07/06 10:26:38;;;;;;;13.98;12.68;;;;;;;33.97;29.46;99581.81;5022281;28;20104;-59
2022/07/06 10:29:06;;;;;;;14.13;12.70;;;;;;;34.07;29.23;99584.53;5021089;28;20085;-61
2022/07/06 10:31:34;;;;;;;13.02;11.93;;;;;;;34.32;28.88;99577.16;5032316;28;20030;-58
2022/07/06 10:34:03;;;;;;;13.65;12.55;;;;;;;34.46;28.65;99557.88;5027459;28;20033;-57
2022/07/06 10:36:29;;;;;;;13.95;12.65;;;;;;;34.69;28.56;99578.53;5020763;28;20076;-56
2022/07/06 10:38:55;;;;;;;13.63;12.32;;;;;;;34.67;28.62;99571.63;5023838;28;20045;-55
2022/07/06 10:41:35;;;;;;;12.57;11.48;;;;;;;34.37;27.67;99504.06;5030668;28;20052;-57
2022/07/06 10:44:18;;;;;;;13.32;11.15;;;;;;;34.71;27.37;99570.72;5018782;28;20116;-59
2022/07/06 10:46:55;;;;;;;13.75;12.52;;;;;;;34.61;28.21;99574.47;5022394;28;20029;-56
2022/07/06 10:49:22;;;;;;;12.90;11.80;;;;;;;34.30;28.92;99549.66;5029895;28;20370;-56
2022/07/06 10:51:49;;;;;;;13.85;12.65;;;;;;;34.59;28.13;99573.09;5029889;28;20374;-58
2022/07/06 10:54:15;;;;;;;12.75;11.70;;;;;;;34.69;28.28;99575.75;5030494;28;20040;-57
2022/07/06 10:56:51;;;;;;;13.30;11.75;;;;;;;34.87;28.22;99557.53;5030599;28;20127;-58
2022/07/06 10:59:19;;;;;;;13.05;11.75;;;;;;;34.87;28.70;99559.47;5030663;28;20037;-56
2022/07/06 11:02:13;;;;;;;13.63;12.27;;;;;;;35.17;28.22;99554.72;5031288;28;20033;-49
2022/07/06 11:04:40;;;;;;;13.25;12.25;;;;;;;35.19;28.63;99541.34;5030999;28;20029;-61
2022/07/06 11:07:14;;;;;;;14.05;12.73;;;;;;;35.28;28.44;99556.28;5022796;28;20331;-60
2022/07/06 11:09:53;;;;;;;14.48;13.27;;;;;;;35.09;28.55;99555.41;5030846;28;20030;-59
2022/07/06 11:12:20;;;;;;;14.07;12.88;;;;;;;34.77;28.91;99552.91;5030369;28;20563;-53
2022/07/06 11:14:46;;;;;;;14.00;12.45;;;;;;;34.44;29.83;99560.13;5030853;28;20021;-55
2022/07/06 11:17:12;;;;;;;14.00;12.70;;;;;;;34.26;29.67;99550.53;5030882;28;20441;-58
2022/07/06 11:19:48;;;;;;;13.00;11.82;;;;;;;34.28;29.68;99545.53;5030260;28;20033;-61
2022/07/06 11:22:15;;;;;;;12.75;11.57;;;;;;;34.46;30.03;99552.31;5029649;28;20100;-59
2022/07/06 11:24:41;;;;;;;13.95;12.65;;;;;;;34.67;29.45;99541.88;5030502;28;20029;-58